sensor_id;sensor_type;location;lat;lon;timestamp;P1;durP1;ratioP1;P2;durP2;ratioP2
67227;SDS011;54139;42.616;23.748;2023-07-29T00:02:16;4.57;;;4.28;;
67227;SDS011;54139;42.616;23.748;2023-07-29T00:04:41;5.03;;;3.65;;
67227;SDS011;54139;42.616;23.748;2023-07-29T00:07:07;4.22;;;3.83;;
67227;SDS011;54139;42.616;23.748;2023-07-29T00:09:33;4.75;;;4.30;;
67227;SDS011;54139;42.616;23.748;2023-07-29T00:11:58;7.32;;;4.68;;
67227;SDS011;54139;42.616;23.748;2023-07-29T00:14:23;4.97;;;4.30;;
67227;SDS011;54139;42.616;23.748;2023-07-29T00:16:49;4.88;;;4.32;;
67227;SDS011;54139;42.616;23.748;2023-07-29T00:19:14;4.07;;;3.78;;
67227;SDS011;54139;42.616;23.748;2023-07-29T00:21:40;4.43;;;4.13;;
67227;SDS011;54139;42.616;23.748;2023-07-29T00:24:06;4.63;;;4.22;;
67227;SDS011;54139;42.616;23.748;2023-07-29T00:26:31;4.55;;;4.15;;
67227;SDS011;54139;42.616;23.748;2023-07-29T00:28:57;6.03;;;4.20;;
67227;SDS011;54139;42.616;23.748;2023-07-29T00:33:58;5.00;;;4.60;;
67227;SDS011;54139;42.616;23.748;2023-07-29T00:36:23;4.85;;;4.50;;
67227;SDS011;54139;42.616;23.748;2023-07-29T00:38:49;4.93;;;4.53;;
67227;SDS011;54139;42.616;23.748;2023-07-29T00:41:14;5.80;;;4.68;;
67227;SDS011;54139;42.616;23.748;2023-07-29T00:43:40;4.75;;;4.35;;
67227;SDS011;54139;42.616;23.748;2023-07-29T00:46:06;7.40;;;4.88;;
67227;SDS011;54139;42.616;23.748;2023-07-29T00:48:32;5.25;;;4.57;;
67227;SDS011;54139;42.616;23.748;2023-07-29T00:50:57;4.57;;;4.18;;
67227;SDS011;54139;42.616;23.748;2023-07-29T00:53:23;5.00;;;4.60;;
67227;SDS011;54139;42.616;23.748;2023-07-29T00:55:48;4.88;;;4.43;;
67227;SDS011;54139;42.616;23.748;2023-07-29T00:58:14;5.40;;;4.90;;
67227;SDS011;54139;42.616;23.748;2023-07-29T01:00:39;4.70;;;4.30;;
67227;SDS011;54139;42.616;23.748;2023-07-29T01:03:05;4.45;;;4.15;;
67227;SDS011;54139;42.616;23.748;2023-07-29T01:05:32;4.63;;;4.32;;
67227;SDS011;54139;42.616;23.748;2023-07-29T01:08:06;4.78;;;4.47;;
67227;SDS011;54139;42.616;23.748;2023-07-29T01:10:40;5.00;;;4.60;;
67227;SDS011;54139;42.616;23.748;2023-07-29T01:18:28;5.03;;;4.72;;
67227;SDS011;54139;42.616;23.748;2023-07-29T01:20:58;4.75;;;4.32;;
67227;SDS011;54139;42.616;23.748;2023-07-29T01:23:26;4.90;;;4.60;;
67227;SDS011;54139;42.616;23.748;2023-07-29T01:25:57;5.00;;;4.60;;
67227;SDS011;54139;42.616;23.748;2023-07-29T01:28:22;5.20;;;4.60;;
67227;SDS011;54139;42.616;23.748;2023-07-29T01:30:49;5.13;;;4.57;;
67227;SDS011;54139;42.616;23.748;2023-07-29T01:35:42;5.55;;;5.10;;
67227;SDS011;54139;42.616;23.748;2023-07-29T01:38:21;4.82;;;4.43;;
67227;SDS011;54139;42.616;23.748;2023-07-29T01:40:56;5.05;;;4.65;;
67227;SDS011;54139;42.616;23.748;2023-07-29T01:43:23;4.75;;;4.45;;
67227;SDS011;54139;42.616;23.748;2023-07-29T01:45:50;5.63;;;4.70;;
67227;SDS011;54139;42.616;23.748;2023-07-29T01:48:16;5.68;;;5.28;;
67227;SDS011;54139;42.616;23.748;2023-07-29T01:50:42;5.60;;;5.05;;
67227;SDS011;54139;42.616;23.748;2023-07-29T01:53:08;5.20;;;4.80;;
67227;SDS011;54139;42.616;23.748;2023-07-29T01:55:33;6.43;;;4.38;;
67227;SDS011;54139;42.616;23.748;2023-07-29T01:57:59;5.63;;;5.13;;
67227;SDS011;54139;42.616;23.748;2023-07-29T02:00:24;5.20;;;4.80;;
67227;SDS011;54139;42.616;23.748;2023-07-29T02:02:50;5.70;;;5.22;;
67227;SDS011;54139;42.616;23.748;2023-07-29T02:05:15;5.35;;;4.85;;
67227;SDS011;54139;42.616;23.748;2023-07-29T02:07:40;5.40;;;5.00;;
67227;SDS011;54139;42.616;23.748;2023-07-29T02:10:06;5.28;;;4.70;;
67227;SDS011;54139;42.616;23.748;2023-07-29T02:12:32;4.68;;;4.38;;
67227;SDS011;54139;42.616;23.748;2023-07-29T02:14:58;5.35;;;4.85;;
67227;SDS011;54139;42.616;23.748;2023-07-29T02:17:23;5.38;;;4.82;;
67227;SDS011;54139;42.616;23.748;2023-07-29T02:19:49;5.93;;;4.55;;
67227;SDS011;54139;42.616;23.748;2023-07-29T02:22:16;5.60;;;5.10;;
67227;SDS011;54139;42.616;23.748;2023-07-29T02:24:42;8.32;;;4.95;;
67227;SDS011;54139;42.616;23.748;2023-07-29T02:27:07;5.40;;;4.88;;
67227;SDS011;54139;42.616;23.748;2023-07-29T02:29:33;4.90;;;4.50;;
67227;SDS011;54139;42.616;23.748;2023-07-29T02:31:59;6.93;;;4.95;;
67227;SDS011;54139;42.616;23.748;2023-07-29T02:34:25;5.43;;;4.90;;
67227;SDS011;54139;42.616;23.748;2023-07-29T02:39:25;6.53;;;4.75;;
67227;SDS011;54139;42.616;23.748;2023-07-29T02:54:47;5.80;;;5.32;;
67227;SDS011;54139;42.616;23.748;2023-07-29T02:57:13;5.90;;;5.50;;
67227;SDS011;54139;42.616;23.748;2023-07-29T03:02:27;5.95;;;5.18;;
67227;SDS011;54139;42.616;23.748;2023-07-29T03:04:52;7.55;;;4.63;;
67227;SDS011;54139;42.616;23.748;2023-07-29T03:07:18;5.47;;;5.07;;
67227;SDS011;54139;42.616;23.748;2023-07-29T03:09:43;5.80;;;5.25;;
67227;SDS011;54139;42.616;23.748;2023-07-29T03:12:10;4.90;;;4.47;;
67227;SDS011;54139;42.616;23.748;2023-07-29T03:14:35;5.93;;;4.70;;
67227;SDS011;54139;42.616;23.748;2023-07-29T03:17:04;6.20;;;4.97;;
67227;SDS011;54139;42.616;23.748;2023-07-29T03:19:29;5.50;;;5.10;;
67227;SDS011;54139;42.616;23.748;2023-07-29T03:21:55;6.30;;;5.80;;
67227;SDS011;54139;42.616;23.748;2023-07-29T03:24:21;6.18;;;5.63;;
67227;SDS011;54139;42.616;23.748;2023-07-29T03:26:46;5.45;;;4.93;;
67227;SDS011;54139;42.616;23.748;2023-07-29T03:29:11;6.05;;;5.50;;
67227;SDS011;54139;42.616;23.748;2023-07-29T03:31:37;5.70;;;5.30;;
67227;SDS011;54139;42.616;23.748;2023-07-29T03:34:03;5.35;;;4.95;;
67227;SDS011;54139;42.616;23.748;2023-07-29T03:36:28;6.25;;;4.90;;
67227;SDS011;54139;42.616;23.748;2023-07-29T03:38:54;5.97;;;5.38;;
67227;SDS011;54139;42.616;23.748;2023-07-29T03:41:20;8.13;;;4.47;;
67227;SDS011;54139;42.616;23.748;2023-07-29T03:43:45;6.70;;;5.35;;
67227;SDS011;54139;42.616;23.748;2023-07-29T03:46:11;5.03;;;4.63;;
67227;SDS011;54139;42.616;23.748;2023-07-29T03:48:36;5.22;;;4.82;;
67227;SDS011;54139;42.616;23.748;2023-07-29T03:51:01;5.72;;;5.22;;
67227;SDS011;54139;42.616;23.748;2023-07-29T03:53:27;4.57;;;4.28;;
67227;SDS011;54139;42.616;23.748;2023-07-29T03:55:52;4.85;;;4.45;;
67227;SDS011;54139;42.616;23.748;2023-07-29T03:58:18;4.35;;;3.95;;
67227;SDS011;54139;42.616;23.748;2023-07-29T04:00:43;4.82;;;3.95;;
67227;SDS011;54139;42.616;23.748;2023-07-29T04:03:09;4.13;;;3.75;;
67227;SDS011;54139;42.616;23.748;2023-07-29T04:05:34;4.85;;;3.47;;
67227;SDS011;54139;42.616;23.748;2023-07-29T04:08:00;3.55;;;3.22;;
67227;SDS011;54139;42.616;23.748;2023-07-29T04:10:25;5.60;;;3.10;;
67227;SDS011;54139;42.616;23.748;2023-07-29T04:12:51;3.40;;;3.17;;
67227;SDS011;54139;42.616;23.748;2023-07-29T04:15:16;3.70;;;3.40;;
67227;SDS011;54139;42.616;23.748;2023-07-29T04:17:42;4.47;;;4.03;;
67227;SDS011;54139;42.616;23.748;2023-07-29T04:20:07;3.45;;;3.25;;
67227;SDS011;54139;42.616;23.748;2023-07-29T04:22:33;3.83;;;3.42;;
67227;SDS011;54139;42.616;23.748;2023-07-29T04:24:59;3.58;;;3.28;;
67227;SDS011;54139;42.616;23.748;2023-07-29T04:27:24;4.80;;;2.63;;
67227;SDS011;54139;42.616;23.748;2023-07-29T04:29:50;3.38;;;3.08;;
67227;SDS011;54139;42.616;23.748;2023-07-29T04:32:15;3.17;;;2.97;;
67227;SDS011;54139;42.616;23.748;2023-07-29T04:34:41;5.55;;;3.78;;
67227;SDS011;54139;42.616;23.748;2023-07-29T04:37:06;3.60;;;3.30;;
67227;SDS011;54139;42.616;23.748;2023-07-29T04:39:31;4.55;;;3.17;;
67227;SDS011;54139;42.616;23.748;2023-07-29T04:41:58;2.58;;;2.38;;
67227;SDS011;54139;42.616;23.748;2023-07-29T04:44:23;2.72;;;2.53;;
67227;SDS011;54139;42.616;23.748;2023-07-29T04:46:49;4.70;;;2.78;;
67227;SDS011;54139;42.616;23.748;2023-07-29T04:49:14;3.13;;;2.85;;
67227;SDS011;54139;42.616;23.748;2023-07-29T04:51:40;4.63;;;2.50;;
67227;SDS011;54139;42.616;23.748;2023-07-29T04:54:05;2.92;;;2.65;;
67227;SDS011;54139;42.616;23.748;2023-07-29T04:56:31;3.45;;;2.53;;
67227;SDS011;54139;42.616;23.748;2023-07-29T04:58:56;3.35;;;2.65;;
67227;SDS011;54139;42.616;23.748;2023-07-29T05:01:21;2.50;;;2.40;;
67227;SDS011;54139;42.616;23.748;2023-07-29T05:03:47;2.60;;;2.40;;
67227;SDS011;54139;42.616;23.748;2023-07-29T05:06:12;3.13;;;2.20;;
67227;SDS011;54139;42.616;23.748;2023-07-29T05:08:38;3.90;;;2.53;;
67227;SDS011;54139;42.616;23.748;2023-07-29T05:11:03;3.22;;;2.20;;
67227;SDS011;54139;42.616;23.748;2023-07-29T05:13:29;3.67;;;2.30;;
67227;SDS011;54139;42.616;23.748;2023-07-29T05:15:54;2.77;;;2.53;;
67227;SDS011;54139;42.616;23.748;2023-07-29T05:18:20;4.83;;;2.33;;
67227;SDS011;54139;42.616;23.748;2023-07-29T05:20:46;2.97;;;2.70;;
67227;SDS011;54139;42.616;23.748;2023-07-29T05:23:12;2.10;;;2.00;;
67227;SDS011;54139;42.616;23.748;2023-07-29T05:25:37;2.73;;;2.53;;
67227;SDS011;54139;42.616;23.748;2023-07-29T05:28:03;2.90;;;2.13;;
67227;SDS011;54139;42.616;23.748;2023-07-29T05:30:29;2.23;;;2.13;;
67227;SDS011;54139;42.616;23.748;2023-07-29T05:32:59;2.83;;;2.30;;
67227;SDS011;54139;42.616;23.748;2023-07-29T05:35:24;3.35;;;2.40;;
67227;SDS011;54139;42.616;23.748;2023-07-29T05:37:50;4.43;;;2.40;;
67227;SDS011;54139;42.616;23.748;2023-07-29T05:40:15;2.33;;;2.13;;
67227;SDS011;54139;42.616;23.748;2023-07-29T05:45:07;3.25;;;2.60;;
67227;SDS011;54139;42.616;23.748;2023-07-29T05:47:33;2.13;;;2.00;;
67227;SDS011;54139;42.616;23.748;2023-07-29T05:49:58;2.30;;;2.10;;
67227;SDS011;54139;42.616;23.748;2023-07-29T05:52:27;4.00;;;2.60;;
67227;SDS011;54139;42.616;23.748;2023-07-29T05:54:52;2.40;;;2.20;;
67227;SDS011;54139;42.616;23.748;2023-07-29T05:57:17;2.97;;;2.60;;
67227;SDS011;54139;42.616;23.748;2023-07-29T05:59:43;7.47;;;2.40;;
67227;SDS011;54139;42.616;23.748;2023-07-29T06:02:08;4.47;;;2.30;;
67227;SDS011;54139;42.616;23.748;2023-07-29T06:04:34;2.60;;;2.40;;
67227;SDS011;54139;42.616;23.748;2023-07-29T06:06:59;2.95;;;2.00;;
67227;SDS011;54139;42.616;23.748;2023-07-29T06:09:25;2.40;;;2.20;;
67227;SDS011;54139;42.616;23.748;2023-07-29T06:11:50;2.17;;;2.00;;
67227;SDS011;54139;42.616;23.748;2023-07-29T06:14:16;2.47;;;2.25;;
67227;SDS011;54139;42.616;23.748;2023-07-29T06:16:42;2.15;;;1.95;;
67227;SDS011;54139;42.616;23.748;2023-07-29T06:19:07;2.47;;;2.33;;
67227;SDS011;54139;42.616;23.748;2023-07-29T06:21:34;4.22;;;2.95;;
67227;SDS011;54139;42.616;23.748;2023-07-29T06:23:59;4.90;;;4.40;;
67227;SDS011;54139;42.616;23.748;2023-07-29T06:26:25;4.70;;;4.30;;
67227;SDS011;54139;42.616;23.748;2023-07-29T06:28:50;6.07;;;3.47;;
67227;SDS011;54139;42.616;23.748;2023-07-29T06:31:15;3.67;;;3.38;;
67227;SDS011;54139;42.616;23.748;2023-07-29T06:33:41;3.40;;;3.10;;
67227;SDS011;54139;42.616;23.748;2023-07-29T06:36:06;4.90;;;2.92;;
67227;SDS011;54139;42.616;23.748;2023-07-29T06:38:32;4.10;;;2.72;;
67227;SDS011;54139;42.616;23.748;2023-07-29T06:40:57;3.60;;;2.33;;
67227;SDS011;54139;42.616;23.748;2023-07-29T06:43:22;2.57;;;2.33;;
67227;SDS011;54139;42.616;23.748;2023-07-29T06:45:48;2.40;;;2.20;;
67227;SDS011;54139;42.616;23.748;2023-07-29T06:48:13;2.23;;;2.00;;
67227;SDS011;54139;42.616;23.748;2023-07-29T06:50:39;2.23;;;2.03;;
67227;SDS011;54139;42.616;23.748;2023-07-29T06:53:05;3.50;;;1.83;;
67227;SDS011;54139;42.616;23.748;2023-07-29T06:55:31;2.30;;;2.15;;
67227;SDS011;54139;42.616;23.748;2023-07-29T06:57:56;3.35;;;2.38;;
67227;SDS011;54139;42.616;23.748;2023-07-29T07:00:22;2.65;;;2.40;;
67227;SDS011;54139;42.616;23.748;2023-07-29T07:02:47;2.63;;;2.42;;
67227;SDS011;54139;42.616;23.748;2023-07-29T07:05:12;4.30;;;2.90;;
67227;SDS011;54139;42.616;23.748;2023-07-29T07:07:38;4.32;;;2.70;;
67227;SDS011;54139;42.616;23.748;2023-07-29T07:10:04;2.88;;;2.65;;
67227;SDS011;54139;42.616;23.748;2023-07-29T07:12:29;3.30;;;2.40;;
67227;SDS011;54139;42.616;23.748;2023-07-29T07:14:55;3.92;;;2.65;;
67227;SDS011;54139;42.616;23.748;2023-07-29T07:17:20;4.05;;;2.88;;
67227;SDS011;54139;42.616;23.748;2023-07-29T07:19:46;2.85;;;2.38;;
67227;SDS011;54139;42.616;23.748;2023-07-29T07:22:11;2.42;;;2.22;;
67227;SDS011;54139;42.616;23.748;2023-07-29T07:24:37;2.60;;;2.40;;
67227;SDS011;54139;42.616;23.748;2023-07-29T07:27:02;3.42;;;2.80;;
67227;SDS011;54139;42.616;23.748;2023-07-29T07:29:28;2.70;;;2.50;;
67227;SDS011;54139;42.616;23.748;2023-07-29T07:31:55;4.07;;;2.58;;
67227;SDS011;54139;42.616;23.748;2023-07-29T07:34:21;2.72;;;2.53;;
67227;SDS011;54139;42.616;23.748;2023-07-29T07:36:47;3.03;;;2.72;;
67227;SDS011;54139;42.616;23.748;2023-07-29T07:39:13;2.80;;;2.60;;
67227;SDS011;54139;42.616;23.748;2023-07-29T07:41:38;2.72;;;2.50;;
67227;SDS011;54139;42.616;23.748;2023-07-29T07:44:04;3.92;;;2.47;;
67227;SDS011;54139;42.616;23.748;2023-07-29T07:46:29;4.32;;;2.22;;
67227;SDS011;54139;42.616;23.748;2023-07-29T07:48:55;3.90;;;2.42;;
67227;SDS011;54139;42.616;23.748;2023-07-29T07:51:20;3.40;;;2.60;;
67227;SDS011;54139;42.616;23.748;2023-07-29T07:53:46;3.20;;;2.60;;
67227;SDS011;54139;42.616;23.748;2023-07-29T07:56:11;5.55;;;2.75;;
67227;SDS011;54139;42.616;23.748;2023-07-29T07:58:37;4.78;;;3.50;;
67227;SDS011;54139;42.616;23.748;2023-07-29T08:01:03;3.90;;;3.60;;
67227;SDS011;54139;42.616;23.748;2023-07-29T08:03:30;6.63;;;4.65;;
67227;SDS011;54139;42.616;23.748;2023-07-29T08:05:56;5.65;;;5.20;;
67227;SDS011;54139;42.616;23.748;2023-07-29T08:08:21;4.00;;;3.63;;
67227;SDS011;54139;42.616;23.748;2023-07-29T08:10:46;4.20;;;3.90;;
67227;SDS011;54139;42.616;23.748;2023-07-29T08:13:12;3.45;;;3.15;;
67227;SDS011;54139;42.616;23.748;2023-07-29T08:15:37;3.95;;;2.92;;
67227;SDS011;54139;42.616;23.748;2023-07-29T08:18:03;3.03;;;2.83;;
67227;SDS011;54139;42.616;23.748;2023-07-29T08:20:28;2.97;;;2.75;;
67227;SDS011;54139;42.616;23.748;2023-07-29T08:22:54;3.38;;;3.08;;
67227;SDS011;54139;42.616;23.748;2023-07-29T08:25:19;7.20;;;2.88;;
67227;SDS011;54139;42.616;23.748;2023-07-29T08:27:44;2.60;;;2.40;;
67227;SDS011;54139;42.616;23.748;2023-07-29T08:30:10;2.75;;;2.55;;
67227;SDS011;54139;42.616;23.748;2023-07-29T08:32:35;3.13;;;2.38;;
67227;SDS011;54139;42.616;23.748;2023-07-29T08:35:01;2.47;;;2.00;;
67227;SDS011;54139;42.616;23.748;2023-07-29T08:37:26;2.38;;;2.17;;
67227;SDS011;54139;42.616;23.748;2023-07-29T08:39:52;2.65;;;2.10;;
67227;SDS011;54139;42.616;23.748;2023-07-29T08:42:19;2.20;;;2.10;;
67227;SDS011;54139;42.616;23.748;2023-07-29T08:44:45;2.55;;;2.13;;
67227;SDS011;54139;42.616;23.748;2023-07-29T08:47:11;1.95;;;1.75;;
67227;SDS011;54139;42.616;23.748;2023-07-29T08:49:38;1.80;;;1.70;;
67227;SDS011;54139;42.616;23.748;2023-07-29T08:52:04;2.58;;;2.00;;
67227;SDS011;54139;42.616;23.748;2023-07-29T08:54:30;2.10;;;1.90;;
67227;SDS011;54139;42.616;23.748;2023-07-29T08:56:55;2.33;;;2.13;;
67227;SDS011;54139;42.616;23.748;2023-07-29T08:59:21;1.92;;;1.83;;
67227;SDS011;54139;42.616;23.748;2023-07-29T09:01:47;1.65;;;1.55;;
67227;SDS011;54139;42.616;23.748;2023-07-29T09:04:12;1.80;;;1.70;;
67227;SDS011;54139;42.616;23.748;2023-07-29T09:06:39;2.45;;;1.42;;
67227;SDS011;54139;42.616;23.748;2023-07-29T09:09:05;1.58;;;1.40;;
67227;SDS011;54139;42.616;23.748;2023-07-29T09:11:32;5.45;;;1.80;;
67227;SDS011;54139;42.616;23.748;2023-07-29T09:13:58;2.30;;;1.60;;
67227;SDS011;54139;42.616;23.748;2023-07-29T09:16:24;1.77;;;1.50;;
67227;SDS011;54139;42.616;23.748;2023-07-29T09:18:50;1.40;;;1.30;;
67227;SDS011;54139;42.616;23.748;2023-07-29T09:21:25;1.45;;;1.35;;
67227;SDS011;54139;42.616;23.748;2023-07-29T09:23:51;0.90;;;0.90;;
67227;SDS011;54139;42.616;23.748;2023-07-29T09:26:24;1.65;;;1.15;;
67227;SDS011;54139;42.616;23.748;2023-07-29T09:28:57;1.58;;;1.17;;
67227;SDS011;54139;42.616;23.748;2023-07-29T09:31:23;1.20;;;1.10;;
67227;SDS011;54139;42.616;23.748;2023-07-29T09:33:56;0.80;;;0.77;;
67227;SDS011;54139;42.616;23.748;2023-07-29T09:36:25;0.50;;;0.50;;
67227;SDS011;54139;42.616;23.748;2023-07-29T09:38:52;1.60;;;0.85;;
67227;SDS011;54139;42.616;23.748;2023-07-29T09:41:24;0.70;;;0.70;;
67227;SDS011;54139;42.616;23.748;2023-07-29T09:43:57;0.80;;;0.80;;
67227;SDS011;54139;42.616;23.748;2023-07-29T09:46:24;2.17;;;0.90;;
67227;SDS011;54139;42.616;23.748;2023-07-29T09:48:52;1.08;;;0.98;;
67227;SDS011;54139;42.616;23.748;2023-07-29T09:53:45;1.40;;;0.90;;
67227;SDS011;54139;42.616;23.748;2023-07-29T09:56:12;1.00;;;0.90;;
67227;SDS011;54139;42.616;23.748;2023-07-29T09:58:38;3.10;;;1.00;;
67227;SDS011;54139;42.616;23.748;2023-07-29T10:01:07;0.85;;;0.60;;
67227;SDS011;54139;42.616;23.748;2023-07-29T10:03:34;0.75;;;0.75;;
67227;SDS011;54139;42.616;23.748;2023-07-29T10:06:04;1.02;;;0.93;;
67227;SDS011;54139;42.616;23.748;2023-07-29T10:08:31;1.17;;;1.00;;
67227;SDS011;54139;42.616;23.748;2023-07-29T10:11:06;1.50;;;1.08;;
67227;SDS011;54139;42.616;23.748;2023-07-29T10:13:33;1.98;;;0.90;;
67227;SDS011;54139;42.616;23.748;2023-07-29T10:15:59;1.23;;;0.85;;
67227;SDS011;54139;42.616;23.748;2023-07-29T10:18:27;0.73;;;0.65;;
67227;SDS011;54139;42.616;23.748;2023-07-29T10:20:53;1.70;;;0.68;;
67227;SDS011;54139;42.616;23.748;2023-07-29T10:23:19;0.75;;;0.55;;
67227;SDS011;54139;42.616;23.748;2023-07-29T10:25:47;0.85;;;0.70;;
67227;SDS011;54139;42.616;23.748;2023-07-29T10:28:20;0.52;;;0.52;;
67227;SDS011;54139;42.616;23.748;2023-07-29T10:33:14;0.67;;;0.50;;
67227;SDS011;54139;42.616;23.748;2023-07-29T10:35:39;2.50;;;0.65;;
67227;SDS011;54139;42.616;23.748;2023-07-29T10:38:05;0.55;;;0.55;;
67227;SDS011;54139;42.616;23.748;2023-07-29T10:46:14;0.50;;;0.40;;
67227;SDS011;54139;42.616;23.748;2023-07-29T10:48:44;0.88;;;0.47;;
67227;SDS011;54139;42.616;23.748;2023-07-29T10:53:55;0.63;;;0.63;;
67227;SDS011;54139;42.616;23.748;2023-07-29T10:56:31;0.40;;;0.40;;
67227;SDS011;54139;42.616;23.748;2023-07-29T11:02:17;0.75;;;0.60;;
67227;SDS011;54139;42.616;23.748;2023-07-29T11:04:52;0.65;;;0.65;;
67227;SDS011;54139;42.616;23.748;2023-07-29T11:15:17;1.35;;;0.50;;
67227;SDS011;54139;42.616;23.748;2023-07-29T11:20:16;1.05;;;0.90;;
67227;SDS011;54139;42.616;23.748;2023-07-29T11:22:45;0.60;;;0.55;;
67227;SDS011;54139;42.616;23.748;2023-07-29T11:25:12;0.50;;;0.50;;
67227;SDS011;54139;42.616;23.748;2023-07-29T11:27:39;0.50;;;0.50;;
67227;SDS011;54139;42.616;23.748;2023-07-29T11:30:05;0.88;;;0.60;;
67227;SDS011;54139;42.616;23.748;2023-07-29T11:32:35;0.65;;;0.63;;
67227;SDS011;54139;42.616;23.748;2023-07-29T11:35:02;0.57;;;0.57;;
67227;SDS011;54139;42.616;23.748;2023-07-29T11:37:32;1.20;;;0.75;;
67227;SDS011;54139;42.616;23.748;2023-07-29T11:40:01;0.70;;;0.70;;
67227;SDS011;54139;42.616;23.748;2023-07-29T11:42:27;1.65;;;0.90;;
67227;SDS011;54139;42.616;23.748;2023-07-29T11:44:53;2.65;;;0.73;;
67227;SDS011;54139;42.616;23.748;2023-07-29T11:47:21;7.78;;;1.17;;
67227;SDS011;54139;42.616;23.748;2023-07-29T11:49:47;1.15;;;0.77;;
67227;SDS011;54139;42.616;23.748;2023-07-29T11:52:12;0.73;;;0.73;;
67227;SDS011;54139;42.616;23.748;2023-07-29T11:54:38;3.45;;;0.70;;
67227;SDS011;54139;42.616;23.748;2023-07-29T11:57:07;0.63;;;0.63;;
67227;SDS011;54139;42.616;23.748;2023-07-29T11:59:34;0.50;;;0.50;;
67227;SDS011;54139;42.616;23.748;2023-07-29T12:02:00;0.70;;;0.70;;
67227;SDS011;54139;42.616;23.748;2023-07-29T12:04:28;0.77;;;0.77;;
67227;SDS011;54139;42.616;23.748;2023-07-29T12:06:54;1.27;;;0.70;;
67227;SDS011;54139;42.616;23.748;2023-07-29T12:09:19;1.00;;;0.90;;
67227;SDS011;54139;42.616;23.748;2023-07-29T12:11:45;0.80;;;0.80;;
67227;SDS011;54139;42.616;23.748;2023-07-29T12:14:10;0.82;;;0.82;;
67227;SDS011;54139;42.616;23.748;2023-07-29T12:16:42;1.02;;;0.60;;
67227;SDS011;54139;42.616;23.748;2023-07-29T12:19:08;2.35;;;0.88;;
67227;SDS011;54139;42.616;23.748;2023-07-29T12:21:33;1.00;;;0.90;;
67227;SDS011;54139;42.616;23.748;2023-07-29T12:23:59;0.98;;;0.75;;
67227;SDS011;54139;42.616;23.748;2023-07-29T12:26:28;0.77;;;0.77;;
67227;SDS011;54139;42.616;23.748;2023-07-29T12:28:54;1.00;;;1.00;;
67227;SDS011;54139;42.616;23.748;2023-07-29T12:31:21;0.93;;;0.93;;
67227;SDS011;54139;42.616;23.748;2023-07-29T12:33:46;1.00;;;0.90;;
67227;SDS011;54139;42.616;23.748;2023-07-29T12:36:12;3.78;;;1.05;;
67227;SDS011;54139;42.616;23.748;2023-07-29T12:38:37;1.65;;;1.00;;
67227;SDS011;54139;42.616;23.748;2023-07-29T12:41:03;1.55;;;1.10;;
67227;SDS011;54139;42.616;23.748;2023-07-29T12:43:28;2.08;;;1.10;;
67227;SDS011;54139;42.616;23.748;2023-07-29T12:45:54;1.45;;;1.35;;
67227;SDS011;54139;42.616;23.748;2023-07-29T12:48:19;2.13;;;1.58;;
67227;SDS011;54139;42.616;23.748;2023-07-29T12:50:45;2.00;;;1.40;;
67227;SDS011;54139;42.616;23.748;2023-07-29T12:53:11;2.25;;;1.25;;
67227;SDS011;54139;42.616;23.748;2023-07-29T12:55:36;1.27;;;1.17;;
67227;SDS011;54139;42.616;23.748;2023-07-29T12:58:02;1.50;;;1.40;;
67227;SDS011;54139;42.616;23.748;2023-07-29T13:00:27;3.63;;;1.25;;
67227;SDS011;54139;42.616;23.748;2023-07-29T13:02:53;1.55;;;1.45;;
67227;SDS011;54139;42.616;23.748;2023-07-29T13:05:19;1.45;;;1.35;;
67227;SDS011;54139;42.616;23.748;2023-07-29T13:07:44;1.38;;;1.00;;
67227;SDS011;54139;42.616;23.748;2023-07-29T13:10:10;1.67;;;1.40;;
67227;SDS011;54139;42.616;23.748;2023-07-29T13:12:35;3.00;;;1.80;;
67227;SDS011;54139;42.616;23.748;2023-07-29T13:15:01;1.73;;;1.63;;
67227;SDS011;54139;42.616;23.748;2023-07-29T13:17:27;1.90;;;1.80;;
67227;SDS011;54139;42.616;23.748;2023-07-29T13:19:52;5.07;;;1.65;;
67227;SDS011;54139;42.616;23.748;2023-07-29T13:22:19;4.03;;;1.45;;
67227;SDS011;54139;42.616;23.748;2023-07-29T13:24:45;3.42;;;1.58;;
67227;SDS011;54139;42.616;23.748;2023-07-29T13:27:10;1.75;;;1.45;;
67227;SDS011;54139;42.616;23.748;2023-07-29T13:29:36;2.15;;;1.50;;
67227;SDS011;54139;42.616;23.748;2023-07-29T13:32:01;5.90;;;1.77;;
67227;SDS011;54139;42.616;23.748;2023-07-29T13:34:27;1.60;;;1.50;;
67227;SDS011;54139;42.616;23.748;2023-07-29T13:36:52;2.58;;;1.80;;
67227;SDS011;54139;42.616;23.748;2023-07-29T13:39:18;1.38;;;1.25;;
67227;SDS011;54139;42.616;23.748;2023-07-29T13:41:44;1.48;;;1.35;;
67227;SDS011;54139;42.616;23.748;2023-07-29T13:44:09;1.85;;;1.70;;
67227;SDS011;54139;42.616;23.748;2023-07-29T13:46:35;1.50;;;1.40;;
67227;SDS011;54139;42.616;23.748;2023-07-29T13:49:00;1.50;;;1.40;;
67227;SDS011;54139;42.616;23.748;2023-07-29T13:51:26;1.73;;;1.30;;
67227;SDS011;54139;42.616;23.748;2023-07-29T13:53:51;3.30;;;1.65;;
67227;SDS011;54139;42.616;23.748;2023-07-29T13:56:17;2.33;;;1.73;;
67227;SDS011;54139;42.616;23.748;2023-07-29T13:58:42;1.70;;;1.60;;
67227;SDS011;54139;42.616;23.748;2023-07-29T14:01:08;3.38;;;1.63;;
67227;SDS011;54139;42.616;23.748;2023-07-29T14:03:33;1.92;;;1.80;;
67227;SDS011;54139;42.616;23.748;2023-07-29T14:05:58;7.20;;;1.55;;
67227;SDS011;54139;42.616;23.748;2023-07-29T14:08:24;1.73;;;1.30;;
67227;SDS011;54139;42.616;23.748;2023-07-29T14:10:49;1.90;;;1.80;;
67227;SDS011;54139;42.616;23.748;2023-07-29T14:13:15;1.40;;;1.30;;
67227;SDS011;54139;42.616;23.748;2023-07-29T14:15:40;2.78;;;1.48;;
67227;SDS011;54139;42.616;23.748;2023-07-29T14:18:06;2.38;;;1.42;;
67227;SDS011;54139;42.616;23.748;2023-07-29T14:20:31;1.40;;;1.30;;
67227;SDS011;54139;42.616;23.748;2023-07-29T14:22:57;1.42;;;1.33;;
67227;SDS011;54139;42.616;23.748;2023-07-29T14:25:23;1.60;;;1.50;;
67227;SDS011;54139;42.616;23.748;2023-07-29T14:27:48;1.65;;;1.25;;
67227;SDS011;54139;42.616;23.748;2023-07-29T14:30:14;3.25;;;1.20;;
67227;SDS011;54139;42.616;23.748;2023-07-29T14:32:39;4.70;;;1.70;;
67227;SDS011;54139;42.616;23.748;2023-07-29T14:35:05;3.47;;;1.30;;
67227;SDS011;54139;42.616;23.748;2023-07-29T14:37:31;2.75;;;1.40;;
67227;SDS011;54139;42.616;23.748;2023-07-29T14:40:00;5.25;;;1.52;;
67227;SDS011;54139;42.616;23.748;2023-07-29T14:42:26;13.75;;;1.88;;
67227;SDS011;54139;42.616;23.748;2023-07-29T14:44:51;11.88;;;1.65;;
67227;SDS011;54139;42.616;23.748;2023-07-29T14:47:17;4.68;;;1.60;;
67227;SDS011;54139;42.616;23.748;2023-07-29T14:49:43;7.90;;;1.10;;
67227;SDS011;54139;42.616;23.748;2023-07-29T14:52:09;1.45;;;1.35;;
67227;SDS011;54139;42.616;23.748;2023-07-29T14:54:34;1.40;;;1.30;;
67227;SDS011;54139;42.616;23.748;2023-07-29T14:57:00;2.08;;;0.95;;
67227;SDS011;54139;42.616;23.748;2023-07-29T15:12:14;1.30;;;1.20;;
67227;SDS011;54139;42.616;23.748;2023-07-29T15:14:40;1.20;;;1.20;;
67227;SDS011;54139;42.616;23.748;2023-07-29T15:17:05;1.40;;;1.30;;
67227;SDS011;54139;42.616;23.748;2023-07-29T15:19:31;6.32;;;1.50;;
67227;SDS011;54139;42.616;23.748;2023-07-29T15:21:57;4.55;;;1.33;;
67227;SDS011;54139;42.616;23.748;2023-07-29T15:24:22;6.22;;;1.38;;
67227;SDS011;54139;42.616;23.748;2023-07-29T15:26:47;14.43;;;1.80;;
67227;SDS011;54139;42.616;23.748;2023-07-29T15:29:13;1.52;;;1.30;;
67227;SDS011;54139;42.616;23.748;2023-07-29T15:31:39;1.13;;;1.05;;
67227;SDS011;54139;42.616;23.748;2023-07-29T15:34:06;3.03;;;1.17;;
67227;SDS011;54139;42.616;23.748;2023-07-29T15:36:31;2.00;;;1.00;;
67227;SDS011;54139;42.616;23.748;2023-07-29T15:38:56;1.60;;;1.17;;